Latest Weather Observations for Birdsville

IDQ60801

Issued at 9:35 am EST Saturday 20 September 2014 (issued every 30 minutes, with the page automatically refreshed every 10 minutes)

About weather observations | Map of weather stations | Latest weather observations for QLD | Other Formats
Station Details ID: 038026 Name: BIRDSVILLE AIRPORT Lat: -25.90 Lon: 139.35 Height: 46.6 m
Data from the previous 72 hours. | See also: Recent months at Birdsville
Date/Time
EST
Temp
°C
App
Temp
°C
Dew
Point
Rel
Hum
%
Delta-T
°C
Wind Press
QNH
hPa
Press
MSL
hPa
Rain
since 9 am
mm
Dir
 
Spd
km/h
Gust
km/h
Spd
kts
Gust
kts
20/09:30am 15.4 13.2 7.9 61 3.7 ESE 9 13 5 7 1024.4 - 0.8
20/09:00am 16.3 13.2 3.4 42 5.9 ESE 9 13 5 7 1023.8 1023.7 0.0
20/08:30am 17.0 12.1 2.2 37 6.7 ESE 17 20 9 11 1022.9 - 0.0
20/08:00am 17.9 12.2 -0.8 28 8.0 ESE 19 26 10 14 1022.8 - 0.0
20/07:30am 17.9 11.8 -2.4 25 8.4 ESE 20 28 11 15 1021.7 - 0.0
20/07:00am 17.5 11.7 -1.7 27 8.0 E 19 26 10 14 1020.5 - 0.0
20/06:30am 17.3 11.9 -1.4 28 7.8 E 17 22 9 12 1020.4 - 0.0
20/06:00am 17.3 12.6 -1.9 27 7.9 E 13 19 7 10 1020.4 1020.3 0.0
20/05:30am 17.5 12.1 -1.7 27 8.0 ESE 17 22 9 12 1020.1 - 0.0
20/05:00am 17.6 11.7 -2.1 26 8.2 SE 19 26 10 14 1020.2 - 0.0
20/04:30am 17.8 12.2 -2.5 25 8.4 E 17 24 9 13 1019.4 - 0.0
20/04:00am 17.7 12.2 -2.0 26 8.2 E 17 24 9 13 1018.5 - 0.0
20/03:30am 18.0 12.5 -2.3 25 8.4 E 17 22 9 12 1018.4 - 0.0
20/03:00am 18.5 13.0 -2.4 24 8.7 E 17 22 9 12 1018.6 1018.5 0.0
20/02:30am 18.8 13.2 -2.7 23 8.9 E 17 24 9 13 1018.8 - 0.0
20/02:00am 19.2 13.2 -3.0 22 9.2 ESE 19 24 10 13 1018.9 - 0.0
20/01:30am 19.1 14.2 -3.1 22 9.1 E 13 20 7 11 1019.3 - 0.0
20/01:00am 19.0 13.4 -3.2 22 9.1 ESE 17 20 9 11 1019.5 - 0.0
20/12:30am 19.2 13.6 -3.0 22 9.2 ESE 17 20 9 11 1019.6 - 0.0
20/12:00am 19.3 13.7 -2.9 22 9.2 SE 17 20 9 11 1019.9 1019.8 0.0
 
Date/Time
EST
Temp
°C
App
Temp
°C
Dew
Point
Rel
Hum
%
Delta-T
°C
Wind Press
QNH
hPa
Press
MSL
hPa
Rain
since 9 am
mm
Dir
 
Spd
km/h
Gust
km/h
Spd
kts
Gust
kts
19/11:30pm 19.6 14.4 -2.7 22 9.3 ESE 15 17 8 9 1019.9 - 0.0
19/11:00pm 20.1 14.5 -2.9 21 9.6 ESE 17 22 9 12 1019.9 - 0.0
19/10:30pm 20.5 15.7 -2.5 21 9.7 ESE 13 15 7 8 1020.1 - 0.0
19/10:00pm 20.8 15.9 -3.0 20 10.0 SE 13 17 7 9 1020.2 - 0.0
19/09:30pm 21.3 16.9 -2.5 20 10.1 SE 11 17 6 9 1020.1 - 0.0
19/09:00pm 22.0 16.8 -2.7 19 10.5 SE 15 19 8 10 1019.8 1019.7 0.0
19/08:30pm 23.0 17.8 -2.6 18 11.0 SE 15 20 8 11 1019.4 - 0.0
19/08:00pm 23.6 18.4 -2.8 17 11.4 SE 15 19 8 10 1019.0 - 0.0
19/07:30pm 24.4 18.8 -3.0 16 11.9 SSE 17 20 9 11 1018.5 - 0.0
19/07:00pm 25.3 19.7 -3.2 15 12.4 SSE 17 20 9 11 1018.1 - 0.0
19/06:30pm 26.1 20.0 -3.5 14 12.9 SE 19 24 10 13 1017.7 - 0.0
19/06:00pm 27.0 20.7 -3.7 13 13.4 SSE 20 26 11 14 1017.4 1017.3 0.0
19/05:30pm 27.4 21.4 -3.4 13 13.6 S 19 24 10 13 1017.3 - 0.0
19/05:00pm 27.5 21.9 -3.3 13 13.6 SSE 17 26 9 14 1017.2 - 0.0
19/04:30pm 27.9 21.8 -4.1 12 14.0 SSE 19 32 10 17 1017.1 - 0.0
19/04:00pm 28.1 23.1 -3.9 12 14.1 SE 13 17 7 9 1017.6 - 0.0
19/03:30pm 28.2 22.5 -3.9 12 14.1 SSE 17 26 9 14 1017.5 - 0.0
19/03:00pm 27.9 22.4 -5.2 11 14.2 SE 15 24 8 13 1017.9 1017.8 0.0
19/02:30pm 28.1 23.0 -5.1 11 14.3 E 13 19 7 10 1018.4 - 0.0
19/02:00pm 27.4 23.0 -5.6 11 14.0 SE 9 20 5 11 1018.9 - 0.0
19/01:30pm 27.5 23.5 -5.6 11 14.1 E 7 15 4 8 1019.5 - 0.0
19/01:00pm 26.9 22.5 -6.0 11 13.8 E 9 17 5 9 1020.0 - 0.0
19/12:30pm 26.8 22.4 -6.1 11 13.8 E 9 20 5 11 1020.3 - 0.0
19/12:00pm 25.7 20.5 -5.8 12 13.1 SE 13 20 7 11 1020.8 1020.7 0.0
19/11:30am 26.0 21.0 -4.5 13 13.0 E 13 19 7 10 1021.0 - 0.0
19/11:00am 25.2 19.4 -4.2 14 12.5 ENE 17 26 9 14 1021.1 - 0.0
19/10:30am 23.9 17.2 -4.3 15 11.9 ENE 22 30 12 16 1021.3 - 0.0
19/10:00am 22.5 15.9 -3.0 18 10.9 ENE 22 28 12 15 1021.6 - 0.0
19/09:30am 21.0 14.5 -2.8 20 10.0 ENE 22 32 12 17 1021.7 - 0.0
19/09:00am 19.6 12.3 -2.7 22 9.3 E 26 33 14 18 1021.5 1021.4 0.0
19/08:30am 18.3 12.2 -2.6 24 8.6 ENE 20 28 11 15 1021.3 - 0.0
19/08:00am 17.0 11.4 -3.1 25 8.1 ENE 17 22 9 12 1021.1 - 0.0
19/07:30am 15.7 11.1 -3.7 26 7.6 ENE 11 15 6 8 1020.7 - 0.0
19/07:00am 14.4 9.3 -4.8 26 7.3 ENE 13 17 7 9 1020.3 - 0.0
19/06:30am 14.6 9.6 -4.7 26 7.3 ENE 13 19 7 10 1020.1 - 0.0
19/06:00am 14.5 9.4 -5.3 25 7.4 ENE 13 19 7 10 1019.7 1019.6 0.0
19/05:30am 13.7 8.9 -5.9 25 7.2 ESE 11 15 6 8 1019.3 - 0.0
19/05:00am 12.3 7.7 -8.2 23 7.0 SE 9 11 5 6 1019.1 - 0.0
19/04:30am 12.6 8.3 -8.5 22 7.2 SE 7 9 4 5 1019.4 - 0.0
19/04:00am 13.4 8.8 -7.9 22 7.4 SE 9 11 5 6 1019.4 - 0.0
19/03:30am 13.1 8.9 -8.1 22 7.3 SE 7 9 4 5 1019.8 - 0.0
19/03:00am 13.7 9.0 -9.5 19 7.8 SE 9 11 5 6 1020.2 1020.1 0.0
19/02:30am 14.5 10.3 -8.2 20 8.0 SE 7 7 4 4 1020.0 - 0.0
19/02:00am 14.1 9.8 -9.1 19 8.0 SE 7 9 4 5 1020.2 - 0.0
19/01:30am 14.9 10.6 -8.5 19 8.2 SE 7 9 4 5 1020.4 - 0.0
19/01:00am 15.8 11.5 -8.4 18 8.6 SE 7 9 4 5 1020.4 - 0.0
19/12:30am 15.7 11.1 -8.5 18 8.6 SE 9 11 5 6 1020.7 - 0.0
19/12:00am 16.5 12.3 -7.9 18 8.8 SE 7 9 4 5 1021.0 1020.9 0.0
 
Date/Time
EST
Temp
°C
App
Temp
°C
Dew
Point
Rel
Hum
%
Delta-T
°C
Wind Press
QNH
hPa
Press
MSL
hPa
Rain
since 9 am
mm
Dir
 
Spd
km/h
Gust
km/h
Spd
kts
Gust
kts
18/11:30pm 17.0 12.8 -8.2 17 9.1 SE 7 9 4 5 1021.2 - 0.0
18/11:00pm 17.4 12.7 -8.6 16 9.4 SE 9 11 5 6 1021.3 - 0.0
18/10:30pm 17.8 12.7 -9.1 15 9.7 SE 11 11 6 6 1021.2 - 0.0
18/10:00pm 18.6 13.5 -9.4 14 10.1 SE 11 11 6 6 1021.1 - 0.0
18/09:30pm 19.6 14.6 -8.6 14 10.4 SSE 11 15 6 8 1021.3 - 0.0
18/09:00pm 20.8 15.4 -8.6 13 11.0 S 13 15 7 8 1020.9 1020.8 0.0
18/08:30pm 21.4 16.4 -8.1 13 11.3 S 11 13 6 7 1020.4 - 0.0
18/08:00pm 22.0 17.1 -7.6 13 11.5 S 11 13 6 7 1019.9 - 0.0
18/07:30pm 22.5 17.5 -8.3 12 11.8 SSE 11 11 6 6 1019.6 - 0.0
18/07:00pm 23.8 19.3 -7.3 12 12.4 SSE 9 11 5 6 1019.2 - 0.0
18/06:30pm 25.0 19.7 -7.5 11 13.0 SSE 13 19 7 10 1018.9 - 0.0
18/06:00pm 25.7 20.3 -8.2 10 13.5 SE 13 19 7 10 1018.5 1018.4 0.0
18/05:30pm 26.1 21.1 -7.9 10 13.7 SE 11 17 6 9 1018.5 - 0.0
18/05:00pm 26.3 21.7 -7.7 10 13.7 SE 9 17 5 9 1018.2 - 0.0
18/04:30pm 26.4 21.8 -7.6 10 13.8 S 9 15 5 8 1018.3 - 0.0
18/04:00pm 26.2 20.5 -7.8 10 13.7 SSE 15 20 8 11 1018.6 - 0.0
18/03:30pm 26.5 21.2 -7.6 10 13.8 S 13 20 7 11 1018.7 - 0.0
18/03:00pm 26.1 22.2 -6.6 11 13.4 SE 6 11 3 6 1019.0 1018.9 0.0
18/02:30pm 26.4 21.5 -7.6 10 13.8 SE 11 20 6 11 1019.5 - 0.0
18/02:00pm 25.5 21.0 -7.1 11 13.2 S 9 15 5 8 1020.0 - 0.0
18/01:30pm 25.2 20.0 -6.2 12 12.9 SSE 13 19 7 10 1020.7 - 0.0
18/01:00pm 25.3 20.9 -6.1 12 12.9 ENE 9 20 5 11 1020.9 - 0.0
18/12:30pm 24.5 20.1 -5.7 13 12.5 NE 9 17 5 9 1021.5 - 0.0
18/12:00pm 24.0 18.4 -6.1 13 12.2 E 15 24 8 13 1022.3 1022.2 0.0
18/11:30am 24.1 17.8 -6.0 13 12.3 SE 19 24 10 13 1022.6 - 0.0
18/11:00am 23.0 17.4 -5.9 14 11.7 E 15 24 8 13 1023.0 - 0.0
18/10:30am 22.8 16.4 -5.2 15 11.5 ENE 20 28 11 15 1023.2 - 0.0
18/10:00am 22.3 15.9 -4.7 16 11.1 ENE 20 26 11 14 1023.1 - 0.0
18/09:30am 20.7 14.3 -5.2 17 10.4 ENE 20 28 11 15 1023.4 - 0.0
18/09:00am 19.2 12.4 -5.0 19 9.6 ENE 22 30 12 16 1023.1 1023.0 0.0
18/08:30am 17.3 11.1 -4.6 22 8.6 ENE 19 24 10 13 1023.0 - 0.0
18/08:00am 14.7 10.5 -4.1 27 7.2 E 9 17 5 9 1023.0 - 0.0
18/07:30am 12.2 8.3 -4.8 30 6.3 ESE 7 9 4 5 1022.6 - 0.0
18/07:00am 11.7 7.4 -5.3 30 6.2 ESE 9 11 5 6 1022.4 - 0.0
18/06:30am 11.3 6.6 -5.2 31 6.0 SE 11 13 6 7 1022.2 - 0.0
18/06:00am 11.3 6.9 -5.6 30 6.0 S 9 13 5 7 1022.0 1021.9 0.0
18/05:30am 11.6 7.7 -4.9 31 6.0 S 7 9 4 5 1021.8 - 0.0
18/05:00am 11.7 8.0 -4.8 31 6.1 S 6 9 3 5 1021.7 - 0.0
18/04:30am 12.6 8.2 -5.4 28 6.6 S 9 11 5 6 1021.5 - 0.0
18/04:00am 12.9 8.2 -5.1 28 6.7 S 11 13 6 7 1021.4 - 0.0
18/03:30am 12.4 6.5 -6.0 27 6.6 SSW 17 20 9 11 1021.3 - 0.0
18/03:00am 11.9 7.8 -6.5 27 6.5 SE 7 9 4 5 1021.1 1021.0 0.0
18/02:30am 13.3 9.4 -4.8 28 6.8 SE 7 9 4 5 1021.3 - 0.0
18/02:00am 14.0 10.1 -4.7 27 7.1 SE 7 9 4 5 1021.5 - 0.0
18/01:30am 14.4 11.1 -4.3 27 7.2 SE 4 6 2 3 1021.7 - 0.0
18/01:00am 15.2 11.3 -4.7 25 7.6 SE 7 9 4 5 1022.0 - 0.0
18/12:30am 15.1 10.9 -4.2 26 7.5 SE 9 11 5 6 1022.1 - 0.0
18/12:00am 15.9 11.7 -4.1 25 7.8 SE 9 11 5 6 1022.2 1022.1 0.0
 
Date/Time
EST
Temp
°C
App
Temp
°C
Dew
Point
Rel
Hum
%
Delta-T
°C
Wind Press
QNH
hPa
Press
MSL
hPa
Rain
since 9 am
mm
Dir
 
Spd
km/h
Gust
km/h
Spd
kts
Gust
kts
17/11:30pm 16.6 12.4 -4.0 24 8.1 SE 9 11 5 6 1022.1 - 0.0
17/11:00pm 17.0 12.1 -3.7 24 8.2 SSE 13 15 7 8 1022.0 - 0.0
17/10:30pm 17.3 12.8 -3.4 24 8.3 SE 11 13 6 7 1021.9 - 0.0
17/10:00pm 17.9 13.7 -3.5 23 8.6 SE 9 13 5 7 1021.8 - 0.0
17/09:30pm 19.5 14.7 -2.8 22 9.3 SSE 13 17 7 9 1021.4 - 0.0
17/09:00pm 19.4 15.3 -2.8 22 9.2 SSE 9 13 5 7 1021.2 1021.1 0.0
17/08:30pm 21.0 15.9 -2.1 21 9.9 SSE 15 19 8 10 1020.7 - 0.0
17/08:00pm 21.6 16.8 -2.3 20 10.2 S 13 15 7 8 1020.3 - 0.0
17/07:30pm 22.2 18.3 -1.8 20 10.4 SSE 9 11 5 6 1019.9 - 0.0
17/07:00pm 23.2 18.6 -1.0 20 10.8 S 13 17 7 9 1019.4 - 0.0
17/06:30pm 24.1 18.8 -0.9 19 11.2 S 17 22 9 12 1019.0 - 0.0
17/06:00pm 24.7 18.4 -1.2 18 11.6 S 22 28 12 15 1018.9 1018.8 0.0
17/05:30pm 25.5 19.2 -1.3 17 12.1 S 22 30 12 16 1018.7 - 0.0
17/05:00pm 25.7 19.0 -1.2 17 12.2 SSW 24 30 13 16 1018.2 - 0.0
17/04:30pm 26.3 19.7 -0.7 17 12.4 S 24 32 13 17 1018.0 - 0.0
17/04:00pm 26.5 19.9 -0.5 17 12.5 S 24 33 13 18 1017.9 - 0.0
17/03:30pm 26.2 19.8 0.8 19 12.0 S 24 33 13 18 1018.0 - 0.0
17/03:00pm 25.5 19.2 1.6 21 11.4 S 24 37 13 20 1018.2 1018.1 0.0
17/02:30pm 25.8 19.7 2.5 22 11.3 S 24 35 13 19 1018.5 - 0.0
17/02:00pm 25.1 19.4 0.6 20 11.4 S 20 33 11 18 1019.0 - 0.0
17/01:30pm 24.9 19.3 1.1 21 11.2 S 20 33 11 18 1019.3 - 0.0
17/01:00pm 24.0 19.4 -1.0 19 11.2 SE 13 20 7 11 1019.9 - 0.0
17/12:30pm 23.3 18.0 -0.9 20 10.8 SSE 17 24 9 13 1020.2 - 0.0
17/12:00pm 23.5 17.4 -2.2 18 11.2 SSE 20 26 11 14 1020.3 1020.2 0.0
17/11:30am 22.7 17.7 -1.4 20 10.6 SE 15 19 8 10 1020.9 - 0.0
17/11:00am 22.1 16.3 -1.2 21 10.3 ESE 19 24 10 13 1021.1 - 0.0
17/10:30am 22.4 16.5 -1.0 21 10.4 SE 20 28 11 15 1021.6 - 0.0
17/10:00am 21.4 15.2 -0.6 23 9.7 SE 22 32 12 17 1021.9 - 0.0

Other Formats:

Comma delimited format used in spreadsheet applications
http://www.bom.gov.au/fwo/IDQ60801/IDQ60801.95482.axf

JavaScript Object Notation format (JSON) in row-major order
http://www.bom.gov.au/fwo/IDQ60801/IDQ60801.95482.json